GIA8082 WAOO-WIMM
Flight info
| Callsign | GIA8082 |
|---|---|
| Flight time | 2h 52m |
| Altitude | 36000 |
| Route | ENPIN DCT GUKNO DCT JATAM A585 PKU W12 MEDIA |
| Aircraft | A333/H-SDE3GHIJ2J3J5M1RVWXY/LB2D1 |
Departure
| Time | 2026-04-26 10:32 |
|---|---|
| Airport | Syamsudin Noor International Airport (WAOO) |
Arrival
| Time | 2026-04-26 13:24 |
|---|---|
| Airport | Kualanamu International Airport (WIMM) |
| Time | Latitude | Longitude | Altitude | Speed | Heading |
|---|---|---|---|---|---|
| 2026-04-26 10:23 | -3.43971 | 114.76173 | 83 ft | 0 kts | 319° |
| 2026-04-26 10:27 | -3.43970 | 114.76172 | 83 ft | 1 kts | 318° |
| 2026-04-26 10:27 | -3.43958 | 114.76154 | 83 ft | 5 kts | 291° |
| 2026-04-26 10:27 | -3.43947 | 114.76101 | 83 ft | 10 kts | 277° |
| 2026-04-26 10:27 | -3.43942 | 114.76016 | 83 ft | 13 kts | 262° |
| 2026-04-26 10:28 | -3.44022 | 114.75965 | 83 ft | 16 kts | 192° |
| 2026-04-26 10:28 | -3.44143 | 114.75951 | 83 ft | 19 kts | 162° |
| 2026-04-26 10:28 | -3.44196 | 114.76076 | 83 ft | 22 kts | 102° |
| 2026-04-26 10:28 | -3.44229 | 114.76237 | 83 ft | 26 kts | 102° |
| 2026-04-26 10:29 | -3.44264 | 114.76433 | 83 ft | 31 kts | 101° |
| 2026-04-26 10:29 | -3.44310 | 114.76653 | 83 ft | 33 kts | 102° |
| 2026-04-26 10:29 | -3.44352 | 114.76873 | 83 ft | 33 kts | 97° |
| 2026-04-26 10:29 | -3.44389 | 114.77097 | 83 ft | 33 kts | 98° |
| 2026-04-26 10:30 | -3.44403 | 114.77298 | 83 ft | 14 kts | 82° |
| 2026-04-26 10:30 | -3.44407 | 114.77341 | 83 ft | 3 kts | 137° |
| 2026-04-26 10:30 | -3.44430 | 114.77340 | 83 ft | 3 kts | 217° |
| 2026-04-26 10:30 | -3.44430 | 114.77305 | 83 ft | 8 kts | 300° |
| 2026-04-26 10:31 | -3.44420 | 114.77275 | 83 ft | 2 kts | 280° |
| 2026-04-26 10:31 | -3.44390 | 114.77110 | 83 ft | 55 kts | 279° |
| 2026-04-26 10:31 | -3.44281 | 114.76523 | 83 ft | 116 kts | 280° |
| 2026-04-26 10:31 | -3.44100 | 114.75548 | 164 ft | 159 kts | 279° |
| 2026-04-26 10:32 | -3.43909 | 114.74476 | 820 ft | 157 kts | 280° |
| 2026-04-26 10:32 | -3.43732 | 114.73426 | 1547 ft | 152 kts | 280° |
| 2026-04-26 10:32 | -3.43536 | 114.72322 | 1899 ft | 164 kts | 283° |
| 2026-04-26 10:32 | -3.43199 | 114.71188 | 2054 ft | 178 kts | 287° |
| 2026-04-26 10:33 | -3.42825 | 114.69933 | 2183 ft | 197 kts | 287° |
| 2026-04-26 10:33 | -3.42424 | 114.68545 | 2306 ft | 219 kts | 287° |
| 2026-04-26 10:33 | -3.41978 | 114.66982 | 2406 ft | 247 kts | 287° |
| 2026-04-26 10:33 | -3.41495 | 114.65269 | 2687 ft | 265 kts | 287° |
| 2026-04-26 10:34 | -3.41003 | 114.63505 | 3493 ft | 263 kts | 287° |
| 2026-04-26 10:34 | -3.40507 | 114.61728 | 4185 ft | 266 kts | 287° |
| 2026-04-26 10:34 | -3.40008 | 114.59930 | 4888 ft | 270 kts | 287° |
| 2026-04-26 10:34 | -3.39504 | 114.58114 | 5599 ft | 273 kts | 287° |
| 2026-04-26 10:35 | -3.38987 | 114.56254 | 6253 ft | 279 kts | 287° |
| 2026-04-26 10:35 | -3.38460 | 114.54363 | 6910 ft | 284 kts | 287° |
| 2026-04-26 10:35 | -3.37925 | 114.52440 | 7575 ft | 288 kts | 287° |
| 2026-04-26 10:35 | -3.37379 | 114.50483 | 8220 ft | 293 kts | 287° |
| 2026-04-26 10:36 | -3.36831 | 114.48520 | 8872 ft | 297 kts | 286° |
| 2026-04-26 10:36 | -3.36272 | 114.46514 | 9531 ft | 301 kts | 285° |
| 2026-04-26 10:36 | -3.35706 | 114.44482 | 10202 ft | 304 kts | 285° |
| 2026-04-26 10:36 | -3.35127 | 114.42392 | 10474 ft | 324 kts | 285° |
| 2026-04-26 10:37 | -3.34503 | 114.40136 | 10562 ft | 348 kts | 285° |
| 2026-04-26 10:37 | -3.33836 | 114.37729 | 10792 ft | 365 kts | 285° |
| 2026-04-26 10:37 | -3.33160 | 114.35328 | 11897 ft | 355 kts | 284° |
| 2026-04-26 10:37 | -3.32491 | 114.32915 | 12339 ft | 366 kts | 284° |
| 2026-04-26 10:38 | -3.31811 | 114.30457 | 13061 ft | 366 kts | 284° |
| 2026-04-26 10:38 | -3.31128 | 114.27990 | 13672 ft | 370 kts | 284° |
| 2026-04-26 10:38 | -3.30443 | 114.25523 | 14301 ft | 373 kts | 284° |
| 2026-04-26 10:38 | -3.29734 | 114.22969 | 14871 ft | 378 kts | 284° |
| 2026-04-26 10:39 | -3.29036 | 114.20457 | 15475 ft | 381 kts | 284° |
| 2026-04-26 10:39 | -3.28321 | 114.17884 | 16050 ft | 385 kts | 284° |
| 2026-04-26 10:39 | -3.27601 | 114.15293 | 16625 ft | 388 kts | 284° |
| 2026-04-26 10:39 | -3.26874 | 114.12668 | 17107 ft | 394 kts | 284° |
| 2026-04-26 10:40 | -3.26385 | 114.10906 | 17427 ft | 397 kts | 285° |
| 2026-04-26 10:40 | -3.25644 | 114.08242 | 18009 ft | 399 kts | 285° |
| 2026-04-26 10:40 | -3.24647 | 114.04674 | 18847 ft | 398 kts | 284° |
| 2026-04-26 10:40 | -3.23896 | 114.01982 | 19252 ft | 405 kts | 284° |
| 2026-04-26 10:41 | -3.23390 | 114.00163 | 19590 ft | 406 kts | 284° |
| 2026-04-26 10:41 | -3.22630 | 113.97431 | 20086 ft | 409 kts | 284° |
| 2026-04-26 10:41 | -3.21864 | 113.94678 | 20535 ft | 413 kts | 284° |
| 2026-04-26 10:41 | -3.21097 | 113.91922 | 20991 ft | 416 kts | 284° |
| 2026-04-26 10:42 | -3.20320 | 113.89126 | 21422 ft | 419 kts | 284° |
| 2026-04-26 10:42 | -3.19534 | 113.86299 | 21853 ft | 422 kts | 284° |
| 2026-04-26 10:42 | -3.18742 | 113.83457 | 22263 ft | 425 kts | 284° |
| 2026-04-26 10:42 | -3.17947 | 113.80599 | 22666 ft | 428 kts | 284° |
| 2026-04-26 10:43 | -3.17148 | 113.77724 | 22987 ft | 433 kts | 284° |
| 2026-04-26 10:43 | -3.16332 | 113.74786 | 23245 ft | 438 kts | 284° |
| 2026-04-26 10:43 | -3.15527 | 113.71919 | 24353 ft | 421 kts | 284° |
| 2026-04-26 10:43 | -3.14732 | 113.69073 | 24571 ft | 430 kts | 284° |
| 2026-04-26 10:44 | -3.13921 | 113.66160 | 24659 ft | 439 kts | 284° |
| 2026-04-26 10:44 | -3.13095 | 113.63184 | 24774 ft | 448 kts | 284° |
| 2026-04-26 10:44 | -3.12257 | 113.60173 | 25183 ft | 449 kts | 284° |
| 2026-04-26 10:44 | -3.11415 | 113.57152 | 25549 ft | 452 kts | 284° |
| 2026-04-26 10:45 | -3.10574 | 113.54115 | 25879 ft | 455 kts | 285° |
| 2026-04-26 10:45 | -3.09727 | 113.51034 | 25990 ft | 464 kts | 285° |
| 2026-04-26 10:45 | -3.08856 | 113.47914 | 26365 ft | 465 kts | 285° |
| 2026-04-26 10:45 | -3.07992 | 113.44827 | 26671 ft | 468 kts | 285° |
| 2026-04-26 10:46 | -3.07115 | 113.41719 | 27670 ft | 446 kts | 285° |
| 2026-04-26 10:46 | -3.06291 | 113.38786 | 28863 ft | 433 kts | 284° |
| 2026-04-26 10:46 | -3.05477 | 113.35862 | 29013 ft | 440 kts | 285° |
| 2026-04-26 10:46 | -3.04649 | 113.32890 | 29095 ft | 447 kts | 285° |
| 2026-04-26 10:47 | -3.03820 | 113.29880 | 29306 ft | 450 kts | 286° |
| 2026-04-26 10:47 | -3.02983 | 113.26868 | 29676 ft | 450 kts | 286° |
| 2026-04-26 10:47 | -3.02138 | 113.23842 | 29910 ft | 453 kts | 287° |
| 2026-04-26 10:47 | -3.01289 | 113.20803 | 30174 ft | 455 kts | 287° |
| 2026-04-26 10:48 | -3.00432 | 113.17740 | 30293 ft | 460 kts | 287° |
| 2026-04-26 10:48 | -2.99562 | 113.14632 | 30373 ft | 467 kts | 287° |
| 2026-04-26 10:48 | -2.97789 | 113.08287 | 30531 ft | 480 kts | 287° |
| 2026-04-26 10:49 | -2.95978 | 113.01810 | 30687 ft | 492 kts | 287° |
| 2026-04-26 10:49 | -2.95039 | 112.98456 | 30854 ft | 496 kts | 287° |
| 2026-04-26 10:49 | -2.94134 | 112.95206 | 31840 ft | 473 kts | 287° |
| 2026-04-26 10:50 | -2.93271 | 112.92116 | 33193 ft | 454 kts | 287° |
| 2026-04-26 10:50 | -2.92706 | 112.90104 | 33615 ft | 450 kts | 287° |
| 2026-04-26 10:50 | -2.91572 | 112.86053 | 33858 ft | 453 kts | 287° |
| 2026-04-26 10:50 | -2.90729 | 112.83029 | 34055 ft | 455 kts | 287° |
| 2026-04-26 10:51 | -2.88125 | 112.73737 | 34286 ft | 468 kts | 286° |
| 2026-04-26 10:52 | -2.86354 | 112.67394 | 34442 ft | 477 kts | 286° |
| 2026-04-26 10:52 | -2.84569 | 112.61013 | 34755 ft | 482 kts | 286° |
| 2026-04-26 10:52 | -2.83666 | 112.57790 | 35080 ft | 480 kts | 286° |
| 2026-04-26 10:53 | -2.82766 | 112.54577 | 35401 ft | 478 kts | 285° |
| 2026-04-26 10:53 | -2.81869 | 112.51380 | 35656 ft | 478 kts | 285° |
| 2026-04-26 10:53 | -2.80965 | 112.48163 | 35773 ft | 481 kts | 285° |
| 2026-04-26 10:54 | -2.78253 | 112.38453 | 35835 ft | 484 kts | 285° |
| 2026-04-26 10:54 | -2.76459 | 112.32038 | 35832 ft | 480 kts | 285° |
| 2026-04-26 10:55 | -2.74666 | 112.25634 | 35835 ft | 475 kts | 285° |
| 2026-04-26 10:55 | -2.72890 | 112.19288 | 35854 ft | 471 kts | 285° |
| 2026-04-26 10:56 | -2.71135 | 112.13022 | 35849 ft | 471 kts | 285° |
| 2026-04-26 10:56 | -2.69361 | 112.06697 | 35844 ft | 474 kts | 285° |
| 2026-04-26 10:57 | -2.67577 | 112.00333 | 35871 ft | 476 kts | 285° |
| 2026-04-26 10:57 | -2.65787 | 111.93949 | 35897 ft | 477 kts | 285° |
| 2026-04-26 10:58 | -2.63991 | 111.87547 | 35889 ft | 477 kts | 285° |
| 2026-04-26 10:58 | -2.62203 | 111.81164 | 35918 ft | 476 kts | 285° |
| 2026-04-26 10:59 | -2.60509 | 111.75124 | 35950 ft | 474 kts | 285° |
| 2026-04-26 10:59 | -2.58735 | 111.68810 | 35958 ft | 474 kts | 285° |
| 2026-04-26 11:00 | -2.56951 | 111.62452 | 35971 ft | 475 kts | 285° |
| 2026-04-26 11:00 | -2.55160 | 111.56075 | 35968 ft | 476 kts | 285° |
| 2026-04-26 11:01 | -2.53371 | 111.49723 | 35942 ft | 476 kts | 285° |
| 2026-04-26 11:01 | -2.51586 | 111.43353 | 35938 ft | 474 kts | 285° |
| 2026-04-26 11:02 | -2.49806 | 111.37008 | 35946 ft | 473 kts | 285° |
| 2026-04-26 11:02 | -2.48024 | 111.30671 | 35919 ft | 474 kts | 285° |
| 2026-04-26 11:03 | -2.46240 | 111.24325 | 35876 ft | 473 kts | 285° |
| 2026-04-26 11:03 | -2.44465 | 111.18032 | 35850 ft | 461 kts | 285° |
| 2026-04-26 11:04 | -2.42760 | 111.11973 | 35835 ft | 448 kts | 284° |
| 2026-04-26 11:04 | -2.41070 | 111.05916 | 35822 ft | 458 kts | 285° |
| 2026-04-26 11:05 | -2.39333 | 110.99749 | 35814 ft | 469 kts | 285° |
| 2026-04-26 11:05 | -2.37555 | 110.93404 | 35826 ft | 474 kts | 286° |
| 2026-04-26 11:06 | -2.36073 | 110.88143 | 35819 ft | 470 kts | 287° |
| 2026-04-26 11:06 | -2.34013 | 110.80859 | 35799 ft | 467 kts | 286° |
| 2026-04-26 11:07 | -2.32249 | 110.74602 | 35790 ft | 459 kts | 286° |
| 2026-04-26 11:07 | -2.30548 | 110.68541 | 35790 ft | 451 kts | 286° |
| 2026-04-26 11:08 | -2.28855 | 110.62543 | 35789 ft | 446 kts | 286° |
| 2026-04-26 11:08 | -2.27160 | 110.56534 | 35839 ft | 454 kts | 285° |
| 2026-04-26 11:09 | -2.25432 | 110.50386 | 35845 ft | 465 kts | 285° |
| 2026-04-26 11:09 | -2.23664 | 110.44102 | 35844 ft | 473 kts | 285° |
| 2026-04-26 11:10 | -2.21883 | 110.37776 | 35845 ft | 475 kts | 285° |
| 2026-04-26 11:10 | -2.20088 | 110.31398 | 35849 ft | 472 kts | 286° |
| 2026-04-26 11:11 | -2.18325 | 110.25163 | 35843 ft | 459 kts | 285° |
| 2026-04-26 11:11 | -2.17471 | 110.22131 | 35840 ft | 445 kts | 285° |
| 2026-04-26 11:11 | -2.16643 | 110.19195 | 35837 ft | 432 kts | 285° |
| 2026-04-26 11:12 | -2.15841 | 110.16355 | 35835 ft | 418 kts | 285° |
| 2026-04-26 11:12 | -2.15062 | 110.13600 | 35827 ft | 404 kts | 285° |
| 2026-04-26 11:12 | -2.14336 | 110.11032 | 35818 ft | 390 kts | 285° |
| 2026-04-26 11:12 | -2.13621 | 110.08506 | 35811 ft | 375 kts | 285° |
| 2026-04-26 11:13 | -2.12925 | 110.06046 | 35807 ft | 362 kts | 285° |
| 2026-04-26 11:13 | -2.12244 | 110.03640 | 35817 ft | 359 kts | 285° |
| 2026-04-26 11:13 | -2.10882 | 109.98818 | 35839 ft | 362 kts | 286° |
| 2026-04-26 11:14 | -2.09508 | 109.93947 | 35831 ft | 366 kts | 286° |
| 2026-04-26 11:14 | -2.08355 | 109.89854 | 35864 ft | 369 kts | 286° |
| 2026-04-26 11:15 | -2.06714 | 109.84043 | 35882 ft | 374 kts | 287° |
| 2026-04-26 11:15 | -2.05283 | 109.78998 | 35879 ft | 380 kts | 285° |
| 2026-04-26 11:16 | -2.03836 | 109.73872 | 35869 ft | 387 kts | 284° |
| 2026-04-26 11:16 | -2.02376 | 109.68677 | 35869 ft | 394 kts | 285° |
| 2026-04-26 11:17 | -2.00870 | 109.63351 | 35875 ft | 402 kts | 284° |
| 2026-04-26 11:17 | -1.99338 | 109.57909 | 35875 ft | 411 kts | 284° |
| 2026-04-26 11:18 | -1.97767 | 109.52333 | 35872 ft | 422 kts | 284° |
| 2026-04-26 11:18 | -1.96153 | 109.46611 | 35871 ft | 433 kts | 284° |
| 2026-04-26 11:19 | -1.94497 | 109.40732 | 35847 ft | 445 kts | 284° |
| 2026-04-26 11:19 | -1.92792 | 109.34694 | 35841 ft | 457 kts | 284° |
| 2026-04-26 11:20 | -1.91341 | 109.29546 | 35831 ft | 468 kts | 284° |
| 2026-04-26 11:20 | -1.89244 | 109.22136 | 35822 ft | 482 kts | 284° |
| 2026-04-26 11:21 | -1.87417 | 109.15601 | 35804 ft | 493 kts | 287° |
| 2026-04-26 11:21 | -1.85519 | 109.08936 | 35794 ft | 504 kts | 287° |
| 2026-04-26 11:22 | -1.83703 | 109.02582 | 35800 ft | 513 kts | 285° |
| 2026-04-26 11:22 | -1.81761 | 108.95653 | 35927 ft | 519 kts | 286° |
| 2026-04-26 11:23 | -1.80785 | 108.92172 | 36170 ft | 518 kts | 287° |
| 2026-04-26 11:23 | -1.79804 | 108.88725 | 36529 ft | 514 kts | 286° |
| 2026-04-26 11:23 | -1.78843 | 108.85346 | 36804 ft | 512 kts | 287° |
| 2026-04-26 11:23 | -1.77877 | 108.81933 | 37131 ft | 508 kts | 286° |
| 2026-04-26 11:24 | -1.76885 | 108.78495 | 37242 ft | 510 kts | 285° |
| 2026-04-26 11:24 | -1.75931 | 108.75128 | 37334 ft | 511 kts | 285° |
| 2026-04-26 11:24 | -1.74971 | 108.71675 | 37102 ft | 520 kts | 286° |
| 2026-04-26 11:24 | -1.73986 | 108.68170 | 36962 ft | 527 kts | 286° |
| 2026-04-26 11:25 | -1.71984 | 108.61102 | 37187 ft | 529 kts | 286° |
| 2026-04-26 11:25 | -1.70975 | 108.57542 | 37346 ft | 529 kts | 286° |
| 2026-04-26 11:25 | -1.69974 | 108.54003 | 37524 ft | 528 kts | 286° |
| 2026-04-26 11:26 | -1.68981 | 108.50501 | 37698 ft | 528 kts | 286° |
| 2026-04-26 11:26 | -1.68310 | 108.48149 | 37771 ft | 528 kts | 286° |
| 2026-04-26 11:26 | -1.67306 | 108.44606 | 37899 ft | 529 kts | 285° |
| 2026-04-26 11:26 | -1.66313 | 108.41073 | 38089 ft | 528 kts | 286° |
| 2026-04-26 11:27 | -1.64992 | 108.36399 | 38300 ft | 527 kts | 286° |
| 2026-04-26 11:27 | -1.64314 | 108.34010 | 38390 ft | 527 kts | 286° |
| 2026-04-26 11:27 | -1.62991 | 108.29345 | 38577 ft | 526 kts | 286° |
| 2026-04-26 11:27 | -1.62316 | 108.26966 | 38667 ft | 526 kts | 286° |
| 2026-04-26 11:28 | -1.61330 | 108.23492 | 38803 ft | 526 kts | 286° |
| 2026-04-26 11:28 | -1.60335 | 108.19983 | 38945 ft | 525 kts | 285° |
| 2026-04-26 11:28 | -1.59339 | 108.16465 | 39089 ft | 525 kts | 285° |
| 2026-04-26 11:28 | -1.58346 | 108.12968 | 39262 ft | 523 kts | 285° |
| 2026-04-26 11:29 | -1.57358 | 108.09465 | 39382 ft | 523 kts | 285° |
| 2026-04-26 11:29 | -1.56370 | 108.05973 | 39501 ft | 522 kts | 285° |
| 2026-04-26 11:29 | -1.55376 | 108.02465 | 39633 ft | 522 kts | 285° |
| 2026-04-26 11:29 | -1.54387 | 107.98977 | 39757 ft | 521 kts | 285° |
| 2026-04-26 11:30 | -1.53398 | 107.95489 | 39866 ft | 520 kts | 285° |
| 2026-04-26 11:30 | -1.52427 | 107.92064 | 39861 ft | 518 kts | 285° |
| 2026-04-26 11:30 | -1.50452 | 107.85097 | 39818 ft | 520 kts | 285° |
| 2026-04-26 11:31 | -1.48492 | 107.78179 | 39864 ft | 517 kts | 285° |
| 2026-04-26 11:31 | -1.46523 | 107.71234 | 39810 ft | 520 kts | 285° |
| 2026-04-26 11:32 | -1.44555 | 107.64298 | 39835 ft | 518 kts | 285° |
| 2026-04-26 11:32 | -1.42583 | 107.57341 | 39843 ft | 520 kts | 285° |
| 2026-04-26 11:33 | -1.41603 | 107.53886 | 39945 ft | 515 kts | 285° |
| 2026-04-26 11:33 | -1.40639 | 107.50488 | 39754 ft | 516 kts | 285° |
| 2026-04-26 11:33 | -1.38679 | 107.43579 | 39871 ft | 515 kts | 285° |
| 2026-04-26 11:34 | -1.37085 | 107.36618 | 39797 ft | 515 kts | 278° |
| 2026-04-26 11:34 | -1.36376 | 107.29500 | 39883 ft | 512 kts | 275° |
| 2026-04-26 11:35 | -1.36093 | 107.25960 | 39754 ft | 514 kts | 274° |
| 2026-04-26 11:35 | -1.35838 | 107.22390 | 39794 ft | 515 kts | 274° |
| 2026-04-26 11:35 | -1.35358 | 107.15289 | 39855 ft | 513 kts | 274° |
| 2026-04-26 11:36 | -1.34887 | 107.08169 | 39894 ft | 511 kts | 274° |
| 2026-04-26 11:36 | -1.34423 | 107.01114 | 39770 ft | 513 kts | 274° |
| 2026-04-26 11:37 | -1.33956 | 106.93997 | 39873 ft | 512 kts | 274° |
| 2026-04-26 11:37 | -1.33496 | 106.86954 | 39920 ft | 509 kts | 274° |
| 2026-04-26 11:38 | -1.33262 | 106.83431 | 39740 ft | 510 kts | 274° |
| 2026-04-26 11:38 | -1.33028 | 106.79866 | 39653 ft | 514 kts | 274° |
| 2026-04-26 11:38 | -1.32562 | 106.72732 | 39836 ft | 514 kts | 274° |
| 2026-04-26 11:39 | -1.32098 | 106.65628 | 39813 ft | 513 kts | 274° |
| 2026-04-26 11:39 | -1.31635 | 106.58537 | 39861 ft | 508 kts | 274° |
| 2026-04-26 11:40 | -1.31402 | 106.54993 | 39595 ft | 514 kts | 274° |
| 2026-04-26 11:40 | -1.31169 | 106.51425 | 39620 ft | 515 kts | 274° |
| 2026-04-26 11:40 | -1.30704 | 106.44310 | 39843 ft | 514 kts | 274° |
| 2026-04-26 11:42 | -1.28844 | 106.15885 | 39903 ft | 514 kts | 274° |
| 2026-04-26 11:43 | -1.28613 | 106.12370 | 40097 ft | 502 kts | 274° |
| 2026-04-26 11:43 | -1.28387 | 106.08915 | 39697 ft | 501 kts | 274° |
| 2026-04-26 11:43 | -1.28160 | 106.05427 | 39444 ft | 507 kts | 274° |
| 2026-04-26 11:43 | -1.27929 | 106.01907 | 39588 ft | 505 kts | 274° |
| 2026-04-26 11:44 | -1.27699 | 105.98403 | 39737 ft | 504 kts | 274° |
| 2026-04-26 11:44 | -1.27469 | 105.94905 | 39866 ft | 503 kts | 274° |
| 2026-04-26 11:44 | -1.27010 | 105.87931 | 39772 ft | 505 kts | 274° |
| 2026-04-26 11:45 | -1.26550 | 105.80934 | 39891 ft | 504 kts | 274° |
| 2026-04-26 11:45 | -1.26094 | 105.73996 | 39798 ft | 504 kts | 274° |
| 2026-04-26 11:46 | -1.25636 | 105.67019 | 39853 ft | 504 kts | 274° |
| 2026-04-26 11:46 | -1.25175 | 105.60010 | 39860 ft | 504 kts | 274° |
| 2026-04-26 11:47 | -1.24716 | 105.53026 | 39838 ft | 504 kts | 274° |
| 2026-04-26 11:47 | -1.24260 | 105.46104 | 39716 ft | 497 kts | 274° |
| 2026-04-26 11:48 | -1.24037 | 105.42669 | 39461 ft | 490 kts | 274° |
| 2026-04-26 11:48 | -1.23817 | 105.39292 | 39207 ft | 483 kts | 275° |
| 2026-04-26 11:48 | -1.23598 | 105.35968 | 38953 ft | 476 kts | 275° |
| 2026-04-26 11:48 | -1.23382 | 105.32684 | 38697 ft | 469 kts | 275° |
| 2026-04-26 11:49 | -1.23168 | 105.29448 | 38442 ft | 463 kts | 275° |
| 2026-04-26 11:49 | -1.22957 | 105.26264 | 38188 ft | 456 kts | 275° |
| 2026-04-26 11:49 | -1.22751 | 105.23127 | 37936 ft | 450 kts | 275° |
| 2026-04-26 11:49 | -1.22546 | 105.20023 | 37681 ft | 443 kts | 275° |
| 2026-04-26 11:50 | -1.22345 | 105.16978 | 37426 ft | 436 kts | 275° |
| 2026-04-26 11:50 | -1.22146 | 105.13976 | 37171 ft | 430 kts | 275° |
| 2026-04-26 11:50 | -1.21950 | 105.11021 | 36916 ft | 423 kts | 275° |
| 2026-04-26 11:50 | -1.21756 | 105.08098 | 36659 ft | 416 kts | 275° |
| 2026-04-26 11:51 | -1.21567 | 105.05241 | 36402 ft | 409 kts | 275° |
| 2026-04-26 11:51 | -1.21380 | 105.02425 | 36146 ft | 402 kts | 275° |
| 2026-04-26 11:51 | -1.21200 | 104.99709 | 35915 ft | 395 kts | 275° |
| 2026-04-26 11:51 | -1.21023 | 104.97021 | 35842 ft | 382 kts | 275° |
| 2026-04-26 11:52 | -1.20849 | 104.94402 | 35819 ft | 368 kts | 275° |
| 2026-04-26 11:52 | -1.20737 | 104.92700 | 35812 ft | 357 kts | 275° |
| 2026-04-26 11:52 | -1.20362 | 104.87071 | 35833 ft | 349 kts | 275° |
| 2026-04-26 11:53 | -1.20053 | 104.82419 | 35834 ft | 353 kts | 275° |
| 2026-04-26 11:54 | -1.19567 | 104.75060 | 35844 ft | 354 kts | 275° |
| 2026-04-26 11:54 | -1.19240 | 104.70123 | 35856 ft | 358 kts | 275° |
| 2026-04-26 11:55 | -1.18912 | 104.65167 | 35854 ft | 359 kts | 275° |
| 2026-04-26 11:55 | -1.18580 | 104.60170 | 35845 ft | 365 kts | 275° |
| 2026-04-26 11:56 | -1.18240 | 104.55056 | 35847 ft | 373 kts | 275° |
| 2026-04-26 11:56 | -1.18005 | 104.51530 | 35858 ft | 378 kts | 274° |
| 2026-04-26 11:57 | -1.17654 | 104.46224 | 35861 ft | 387 kts | 274° |
| 2026-04-26 11:57 | -1.17296 | 104.40785 | 35859 ft | 398 kts | 274° |
| 2026-04-26 11:58 | -1.16929 | 104.35184 | 35849 ft | 409 kts | 274° |
| 2026-04-26 11:58 | -1.16549 | 104.29426 | 35846 ft | 421 kts | 275° |
| 2026-04-26 11:59 | -1.16156 | 104.23489 | 35846 ft | 433 kts | 275° |
| 2026-04-26 11:59 | -1.15755 | 104.17430 | 35847 ft | 446 kts | 275° |
| 2026-04-26 12:00 | -1.15340 | 104.11161 | 35848 ft | 459 kts | 275° |
| 2026-04-26 12:00 | -1.14914 | 104.04734 | 35839 ft | 472 kts | 275° |
| 2026-04-26 12:01 | -1.14471 | 103.98051 | 35834 ft | 485 kts | 275° |
| 2026-04-26 12:01 | -1.14017 | 103.91255 | 35838 ft | 496 kts | 274° |
| 2026-04-26 12:02 | -1.13556 | 103.84294 | 35839 ft | 506 kts | 274° |
| 2026-04-26 12:02 | -1.13108 | 103.77415 | 35841 ft | 482 kts | 275° |
| 2026-04-26 12:02 | -1.12889 | 103.74122 | 35844 ft | 468 kts | 275° |
| 2026-04-26 12:03 | -1.12677 | 103.70925 | 35846 ft | 454 kts | 275° |
| 2026-04-26 12:03 | -1.12473 | 103.67858 | 35855 ft | 440 kts | 275° |
| 2026-04-26 12:03 | -1.12273 | 103.64855 | 35858 ft | 427 kts | 275° |
| 2026-04-26 12:03 | -1.12077 | 103.61941 | 35858 ft | 413 kts | 275° |
| 2026-04-26 12:04 | -1.11888 | 103.59127 | 35860 ft | 398 kts | 275° |
| 2026-04-26 12:04 | -1.11702 | 103.56417 | 35858 ft | 384 kts | 275° |
| 2026-04-26 12:04 | -1.11527 | 103.53804 | 35854 ft | 370 kts | 275° |
| 2026-04-26 12:04 | -1.11361 | 103.51288 | 35850 ft | 355 kts | 275° |
| 2026-04-26 12:05 | -1.11200 | 103.48873 | 35849 ft | 341 kts | 276° |
| 2026-04-26 12:05 | -1.10885 | 103.44183 | 35879 ft | 339 kts | 276° |
| 2026-04-26 12:06 | -1.10566 | 103.39574 | 35922 ft | 342 kts | 274° |
| 2026-04-26 12:06 | -1.10249 | 103.34777 | 35875 ft | 350 kts | 274° |
| 2026-04-26 12:07 | -1.09926 | 103.29875 | 35852 ft | 357 kts | 274° |
| 2026-04-26 12:07 | -1.09594 | 103.24877 | 35847 ft | 364 kts | 274° |
| 2026-04-26 12:08 | -1.09258 | 103.19767 | 35853 ft | 372 kts | 275° |
| 2026-04-26 12:08 | -1.08908 | 103.14539 | 35855 ft | 381 kts | 275° |
| 2026-04-26 12:09 | -1.08551 | 103.09220 | 35836 ft | 391 kts | 274° |
| 2026-04-26 12:09 | -1.08184 | 103.03718 | 35828 ft | 402 kts | 274° |
| 2026-04-26 12:10 | -1.07809 | 102.98044 | 35829 ft | 414 kts | 274° |
| 2026-04-26 12:10 | -1.07075 | 102.92279 | 35829 ft | 425 kts | 288° |
| 2026-04-26 12:10 | -1.05931 | 102.89539 | 35830 ft | 430 kts | 300° |
| 2026-04-26 12:11 | -1.04203 | 102.87078 | 35835 ft | 435 kts | 313° |
| 2026-04-26 12:11 | -1.00028 | 102.82626 | 35838 ft | 448 kts | 314° |
| 2026-04-26 12:12 | -0.95546 | 102.78180 | 35835 ft | 461 kts | 315° |
| 2026-04-26 12:12 | -0.90881 | 102.73630 | 35828 ft | 474 kts | 316° |
| 2026-04-26 12:13 | -0.86095 | 102.68977 | 35839 ft | 486 kts | 316° |
| 2026-04-26 12:13 | -0.81198 | 102.64226 | 35874 ft | 496 kts | 315° |
| 2026-04-26 12:14 | -0.76388 | 102.59543 | 35870 ft | 471 kts | 316° |
| 2026-04-26 12:14 | -0.74072 | 102.57287 | 35874 ft | 457 kts | 317° |
| 2026-04-26 12:14 | -0.71830 | 102.55109 | 35878 ft | 443 kts | 317° |
| 2026-04-26 12:14 | -0.69652 | 102.52996 | 35874 ft | 430 kts | 317° |
| 2026-04-26 12:15 | -0.68222 | 102.51604 | 35889 ft | 420 kts | 318° |
| 2026-04-26 12:15 | -0.66162 | 102.49604 | 35902 ft | 406 kts | 318° |
| 2026-04-26 12:15 | -0.64191 | 102.47695 | 35908 ft | 392 kts | 318° |
| 2026-04-26 12:15 | -0.62244 | 102.45815 | 35911 ft | 377 kts | 317° |
| 2026-04-26 12:16 | -0.60417 | 102.44053 | 35906 ft | 363 kts | 316° |
| 2026-04-26 12:16 | -0.58636 | 102.42327 | 35897 ft | 349 kts | 316° |
| 2026-04-26 12:16 | -0.56931 | 102.40678 | 35915 ft | 333 kts | 315° |
| 2026-04-26 12:16 | -0.55304 | 102.39100 | 35925 ft | 320 kts | 314° |
| 2026-04-26 12:17 | -0.53714 | 102.37553 | 35942 ft | 319 kts | 314° |
| 2026-04-26 12:17 | -0.50526 | 102.34442 | 35975 ft | 323 kts | 316° |
| 2026-04-26 12:18 | -0.47277 | 102.31293 | 35980 ft | 328 kts | 316° |
| 2026-04-26 12:18 | -0.43956 | 102.28078 | 35970 ft | 335 kts | 315° |
| 2026-04-26 12:19 | -0.40646 | 102.24839 | 35964 ft | 332 kts | 319° |
| 2026-04-26 12:19 | -0.37354 | 102.21658 | 35966 ft | 327 kts | 320° |
| 2026-04-26 12:20 | -0.34111 | 102.18540 | 36017 ft | 320 kts | 317° |
| 2026-04-26 12:20 | -0.32487 | 102.16985 | 35887 ft | 324 kts | 314° |
| 2026-04-26 12:20 | -0.30867 | 102.15407 | 35873 ft | 326 kts | 314° |
| 2026-04-26 12:21 | -0.27605 | 102.12229 | 35867 ft | 329 kts | 314° |
| 2026-04-26 12:21 | -0.24306 | 102.08996 | 35872 ft | 334 kts | 317° |
| 2026-04-26 12:22 | -0.20983 | 102.05779 | 35907 ft | 336 kts | 318° |
| 2026-04-26 12:22 | -0.17590 | 102.02500 | 35905 ft | 342 kts | 317° |
| 2026-04-26 12:23 | -0.14117 | 101.99142 | 35843 ft | 350 kts | 317° |
| 2026-04-26 12:23 | -0.10573 | 101.95717 | 35827 ft | 358 kts | 315° |
| 2026-04-26 12:24 | -0.06975 | 101.92220 | 35811 ft | 367 kts | 315° |
| 2026-04-26 12:24 | -0.03274 | 101.88625 | 35808 ft | 376 kts | 315° |
| 2026-04-26 12:25 | 0.02466 | 101.83037 | 35798 ft | 390 kts | 317° |
| 2026-04-26 12:25 | 0.06411 | 101.79216 | 35804 ft | 400 kts | 317° |
| 2026-04-26 12:26 | 0.10324 | 101.75429 | 35824 ft | 409 kts | 317° |
| 2026-04-26 12:26 | 0.14476 | 101.71407 | 35809 ft | 421 kts | 317° |
| 2026-04-26 12:27 | 0.18745 | 101.67271 | 35792 ft | 434 kts | 317° |
| 2026-04-26 12:27 | 0.23141 | 101.63010 | 35791 ft | 447 kts | 317° |
| 2026-04-26 12:28 | 0.27665 | 101.58624 | 35791 ft | 460 kts | 317° |
| 2026-04-26 12:28 | 0.32336 | 101.54096 | 35790 ft | 474 kts | 316° |
| 2026-04-26 12:29 | 0.37132 | 101.49445 | 35790 ft | 487 kts | 316° |
| 2026-04-26 12:29 | 0.42063 | 101.44664 | 35789 ft | 499 kts | 317° |
| 2026-04-26 12:30 | 0.44581 | 101.42311 | 35789 ft | 505 kts | 318° |
| 2026-04-26 12:30 | 0.49820 | 101.37503 | 35788 ft | 516 kts | 318° |
| 2026-04-26 12:31 | 0.57869 | 101.30119 | 35859 ft | 529 kts | 318° |
| 2026-04-26 12:31 | 0.60578 | 101.27633 | 36056 ft | 529 kts | 318° |
| 2026-04-26 12:31 | 0.63293 | 101.25141 | 36337 ft | 527 kts | 318° |
| 2026-04-26 12:32 | 0.68605 | 101.20263 | 36037 ft | 509 kts | 318° |
| 2026-04-26 12:32 | 0.73729 | 101.15556 | 35528 ft | 492 kts | 318° |
| 2026-04-26 12:33 | 0.76230 | 101.13259 | 35273 ft | 484 kts | 318° |
| 2026-04-26 12:33 | 0.78689 | 101.11001 | 35018 ft | 476 kts | 318° |
| 2026-04-26 12:33 | 0.81107 | 101.08781 | 34764 ft | 468 kts | 318° |
| 2026-04-26 12:33 | 0.83459 | 101.06621 | 34513 ft | 461 kts | 318° |
| 2026-04-26 12:34 | 0.85800 | 101.04471 | 34258 ft | 454 kts | 318° |
| 2026-04-26 12:34 | 0.88108 | 101.02351 | 34003 ft | 447 kts | 318° |
| 2026-04-26 12:34 | 0.90381 | 101.00265 | 33747 ft | 439 kts | 318° |
| 2026-04-26 12:34 | 0.92611 | 100.98217 | 33493 ft | 432 kts | 318° |
| 2026-04-26 12:35 | 0.94809 | 100.96197 | 33238 ft | 425 kts | 318° |
| 2026-04-26 12:35 | 0.96971 | 100.94210 | 32983 ft | 418 kts | 318° |
| 2026-04-26 12:35 | 0.99094 | 100.92259 | 32729 ft | 411 kts | 318° |
| 2026-04-26 12:35 | 1.01175 | 100.90347 | 32475 ft | 404 kts | 318° |
| 2026-04-26 12:36 | 1.03224 | 100.88462 | 32221 ft | 397 kts | 319° |
| 2026-04-26 12:36 | 1.05247 | 100.86602 | 31967 ft | 391 kts | 319° |
| 2026-04-26 12:36 | 1.07240 | 100.84774 | 31713 ft | 388 kts | 318° |
| 2026-04-26 12:36 | 1.09224 | 100.82951 | 31463 ft | 387 kts | 318° |
| 2026-04-26 12:37 | 1.11208 | 100.81128 | 31213 ft | 387 kts | 318° |
| 2026-04-26 12:37 | 1.13185 | 100.79311 | 30964 ft | 386 kts | 318° |
| 2026-04-26 12:37 | 1.15165 | 100.77493 | 30714 ft | 386 kts | 318° |
| 2026-04-26 12:37 | 1.17143 | 100.75676 | 30464 ft | 386 kts | 318° |
| 2026-04-26 12:38 | 1.19090 | 100.73886 | 30218 ft | 385 kts | 318° |
| 2026-04-26 12:38 | 1.21058 | 100.72078 | 29967 ft | 383 kts | 318° |
| 2026-04-26 12:38 | 1.23015 | 100.70280 | 29716 ft | 381 kts | 318° |
| 2026-04-26 12:38 | 1.24967 | 100.68487 | 29464 ft | 380 kts | 318° |
| 2026-04-26 12:39 | 1.26909 | 100.66703 | 29214 ft | 379 kts | 318° |
| 2026-04-26 12:39 | 1.28847 | 100.64922 | 28964 ft | 378 kts | 318° |
| 2026-04-26 12:39 | 1.30786 | 100.63140 | 28713 ft | 377 kts | 318° |
| 2026-04-26 12:39 | 1.32716 | 100.61365 | 28463 ft | 376 kts | 319° |
| 2026-04-26 12:40 | 1.34638 | 100.59598 | 28212 ft | 374 kts | 319° |
| 2026-04-26 12:40 | 1.36550 | 100.57842 | 27961 ft | 372 kts | 319° |
| 2026-04-26 12:40 | 1.38454 | 100.56092 | 27711 ft | 371 kts | 319° |
| 2026-04-26 12:40 | 1.40350 | 100.54350 | 27459 ft | 369 kts | 319° |
| 2026-04-26 12:41 | 1.41275 | 100.53501 | 27336 ft | 369 kts | 319° |
| 2026-04-26 12:41 | 1.43167 | 100.51762 | 27087 ft | 369 kts | 319° |
| 2026-04-26 12:41 | 1.45027 | 100.50052 | 26841 ft | 369 kts | 319° |
| 2026-04-26 12:41 | 1.46923 | 100.48310 | 26589 ft | 368 kts | 319° |
| 2026-04-26 12:42 | 1.48811 | 100.46575 | 26338 ft | 367 kts | 319° |
| 2026-04-26 12:42 | 1.50680 | 100.44856 | 26089 ft | 365 kts | 319° |
| 2026-04-26 12:42 | 1.52549 | 100.43137 | 25837 ft | 363 kts | 320° |
| 2026-04-26 12:42 | 1.54400 | 100.41437 | 25586 ft | 361 kts | 320° |
| 2026-04-26 12:43 | 1.56247 | 100.39740 | 25335 ft | 360 kts | 320° |
| 2026-04-26 12:43 | 1.58085 | 100.38051 | 25085 ft | 358 kts | 320° |
| 2026-04-26 12:43 | 1.59914 | 100.36368 | 24835 ft | 357 kts | 320° |
| 2026-04-26 12:43 | 1.61737 | 100.34692 | 24585 ft | 355 kts | 320° |
| 2026-04-26 12:44 | 1.63530 | 100.33044 | 24337 ft | 354 kts | 320° |
| 2026-04-26 12:44 | 1.65337 | 100.31384 | 24087 ft | 353 kts | 320° |
| 2026-04-26 12:44 | 1.67144 | 100.29722 | 23836 ft | 351 kts | 321° |
| 2026-04-26 12:44 | 1.68935 | 100.28075 | 23586 ft | 349 kts | 321° |
| 2026-04-26 12:45 | 1.70717 | 100.26437 | 23335 ft | 347 kts | 321° |
| 2026-04-26 12:45 | 1.72491 | 100.24806 | 23084 ft | 345 kts | 321° |
| 2026-04-26 12:45 | 1.74254 | 100.23185 | 22834 ft | 344 kts | 321° |
| 2026-04-26 12:45 | 1.76012 | 100.21570 | 22584 ft | 342 kts | 321° |
| 2026-04-26 12:46 | 1.77753 | 100.19968 | 22331 ft | 337 kts | 321° |
| 2026-04-26 12:46 | 1.79462 | 100.18398 | 22075 ft | 330 kts | 321° |
| 2026-04-26 12:46 | 1.81139 | 100.16855 | 21820 ft | 324 kts | 321° |
| 2026-04-26 12:46 | 1.82757 | 100.15367 | 21571 ft | 318 kts | 321° |
| 2026-04-26 12:47 | 1.84402 | 100.13854 | 21315 ft | 315 kts | 321° |
| 2026-04-26 12:47 | 1.86014 | 100.12373 | 21065 ft | 315 kts | 321° |
| 2026-04-26 12:47 | 1.87626 | 100.10892 | 20816 ft | 315 kts | 321° |
| 2026-04-26 12:47 | 1.89228 | 100.09418 | 20567 ft | 314 kts | 321° |
| 2026-04-26 12:48 | 1.90842 | 100.07934 | 20315 ft | 313 kts | 321° |
| 2026-04-26 12:48 | 1.92441 | 100.06464 | 20065 ft | 311 kts | 321° |
| 2026-04-26 12:48 | 1.94012 | 100.05024 | 19839 ft | 308 kts | 320° |
| 2026-04-26 12:48 | 1.95613 | 100.03593 | 19581 ft | 301 kts | 320° |
| 2026-04-26 12:49 | 1.97143 | 100.02233 | 19331 ft | 295 kts | 319° |
| 2026-04-26 12:49 | 1.98661 | 100.00883 | 19077 ft | 289 kts | 319° |
| 2026-04-26 12:49 | 2.00146 | 99.99562 | 18824 ft | 283 kts | 319° |
| 2026-04-26 12:49 | 2.01601 | 99.98268 | 18570 ft | 277 kts | 318° |
| 2026-04-26 12:50 | 2.03031 | 99.96983 | 18289 ft | 282 kts | 320° |
| 2026-04-26 12:50 | 2.04550 | 99.95628 | 18061 ft | 302 kts | 321° |
| 2026-04-26 12:50 | 2.06144 | 99.94216 | 17820 ft | 310 kts | 321° |
| 2026-04-26 12:50 | 2.07761 | 99.92781 | 17569 ft | 308 kts | 321° |
| 2026-04-26 12:51 | 2.09350 | 99.91370 | 17316 ft | 303 kts | 321° |
| 2026-04-26 12:51 | 2.10910 | 99.89984 | 17063 ft | 297 kts | 321° |
| 2026-04-26 12:51 | 2.12445 | 99.88620 | 16811 ft | 293 kts | 321° |
| 2026-04-26 12:51 | 2.13965 | 99.87270 | 16560 ft | 292 kts | 321° |
| 2026-04-26 12:52 | 2.15482 | 99.85923 | 16310 ft | 291 kts | 321° |
| 2026-04-26 12:52 | 2.16992 | 99.84581 | 16060 ft | 290 kts | 321° |
| 2026-04-26 12:52 | 2.18500 | 99.83257 | 15825 ft | 285 kts | 319° |
| 2026-04-26 12:52 | 2.19969 | 99.81951 | 15564 ft | 280 kts | 319° |
| 2026-04-26 12:53 | 2.21428 | 99.80634 | 15316 ft | 294 kts | 321° |
| 2026-04-26 12:53 | 2.22974 | 99.79261 | 15070 ft | 298 kts | 321° |
| 2026-04-26 12:53 | 2.24513 | 99.77893 | 14818 ft | 293 kts | 321° |
| 2026-04-26 12:53 | 2.26024 | 99.76551 | 14565 ft | 288 kts | 321° |
| 2026-04-26 12:54 | 2.27508 | 99.75226 | 14313 ft | 285 kts | 321° |
| 2026-04-26 12:54 | 2.29002 | 99.73902 | 14066 ft | 290 kts | 321° |
| 2026-04-26 12:54 | 2.30519 | 99.72556 | 13820 ft | 295 kts | 321° |
| 2026-04-26 12:54 | 2.32057 | 99.71191 | 13572 ft | 296 kts | 321° |
| 2026-04-26 12:55 | 2.33598 | 99.69821 | 13321 ft | 295 kts | 321° |
| 2026-04-26 12:55 | 2.35125 | 99.68465 | 13070 ft | 293 kts | 321° |
| 2026-04-26 12:55 | 2.36645 | 99.67114 | 12865 ft | 289 kts | 321° |
| 2026-04-26 12:55 | 2.38135 | 99.65789 | 12804 ft | 285 kts | 321° |
| 2026-04-26 12:56 | 2.39609 | 99.64480 | 12790 ft | 285 kts | 321° |
| 2026-04-26 12:56 | 2.41102 | 99.63153 | 12788 ft | 288 kts | 321° |
| 2026-04-26 12:56 | 2.42606 | 99.61817 | 12788 ft | 290 kts | 321° |
| 2026-04-26 12:56 | 2.44116 | 99.60475 | 12786 ft | 291 kts | 321° |
| 2026-04-26 12:57 | 2.45629 | 99.59129 | 12786 ft | 292 kts | 321° |
| 2026-04-26 12:57 | 2.47144 | 99.57782 | 12786 ft | 292 kts | 321° |
| 2026-04-26 12:57 | 2.48644 | 99.56449 | 12786 ft | 291 kts | 321° |
| 2026-04-26 12:58 | 2.51672 | 99.53757 | 12786 ft | 291 kts | 321° |
| 2026-04-26 12:58 | 2.53192 | 99.52406 | 12786 ft | 291 kts | 321° |
| 2026-04-26 12:58 | 2.54707 | 99.51059 | 12786 ft | 291 kts | 321° |
| 2026-04-26 12:58 | 2.56068 | 99.49849 | 12786 ft | 292 kts | 321° |
| 2026-04-26 12:59 | 2.57590 | 99.48496 | 12786 ft | 292 kts | 321° |
| 2026-04-26 12:59 | 2.59109 | 99.47145 | 12786 ft | 292 kts | 321° |
| 2026-04-26 12:59 | 2.60625 | 99.45798 | 12786 ft | 292 kts | 321° |
| 2026-04-26 12:59 | 2.62147 | 99.44444 | 12786 ft | 292 kts | 321° |
| 2026-04-26 13:00 | 2.63645 | 99.43112 | 12786 ft | 292 kts | 321° |
| 2026-04-26 13:00 | 2.65179 | 99.41748 | 12786 ft | 291 kts | 321° |
| 2026-04-26 13:00 | 2.66672 | 99.40420 | 12786 ft | 291 kts | 321° |
| 2026-04-26 13:00 | 2.68189 | 99.39071 | 12786 ft | 291 kts | 321° |
| 2026-04-26 13:01 | 2.69701 | 99.37726 | 12786 ft | 291 kts | 321° |
| 2026-04-26 13:01 | 2.71212 | 99.36382 | 12783 ft | 290 kts | 321° |
| 2026-04-26 13:01 | 2.72709 | 99.35050 | 12595 ft | 286 kts | 321° |
| 2026-04-26 13:01 | 2.74202 | 99.33723 | 12182 ft | 288 kts | 321° |
| 2026-04-26 13:02 | 2.75688 | 99.32402 | 11876 ft | 285 kts | 320° |
| 2026-04-26 13:02 | 2.77162 | 99.31091 | 11525 ft | 283 kts | 320° |
| 2026-04-26 13:02 | 2.78137 | 99.30224 | 11305 ft | 282 kts | 320° |
| 2026-04-26 13:02 | 2.79595 | 99.28926 | 10969 ft | 281 kts | 320° |
| 2026-04-26 13:03 | 2.81053 | 99.27630 | 10635 ft | 279 kts | 320° |
| 2026-04-26 13:03 | 2.82494 | 99.26348 | 10340 ft | 276 kts | 320° |
| 2026-04-26 13:03 | 2.84406 | 99.24646 | 9871 ft | 274 kts | 320° |
| 2026-04-26 13:03 | 2.85352 | 99.23805 | 9659 ft | 273 kts | 320° |
| 2026-04-26 13:04 | 2.86768 | 99.22545 | 9339 ft | 271 kts | 320° |
| 2026-04-26 13:04 | 2.88166 | 99.21300 | 9089 ft | 268 kts | 320° |
| 2026-04-26 13:04 | 2.90016 | 99.19655 | 8759 ft | 270 kts | 320° |
| 2026-04-26 13:04 | 2.90964 | 99.18811 | 8590 ft | 270 kts | 320° |
| 2026-04-26 13:05 | 2.92823 | 99.17157 | 8259 ft | 269 kts | 320° |
| 2026-04-26 13:05 | 2.93767 | 99.16317 | 8089 ft | 268 kts | 320° |
| 2026-04-26 13:05 | 2.95159 | 99.15078 | 7839 ft | 267 kts | 320° |
| 2026-04-26 13:05 | 2.96528 | 99.13860 | 7592 ft | 266 kts | 320° |
| 2026-04-26 13:06 | 2.97895 | 99.12614 | 7339 ft | 265 kts | 316° |
| 2026-04-26 13:06 | 2.99202 | 99.11319 | 7092 ft | 264 kts | 316° |
| 2026-04-26 13:06 | 3.00498 | 99.10033 | 6843 ft | 262 kts | 316° |
| 2026-04-26 13:06 | 3.01788 | 99.08752 | 6591 ft | 261 kts | 316° |
| 2026-04-26 13:07 | 3.03070 | 99.07478 | 6341 ft | 260 kts | 316° |
| 2026-04-26 13:07 | 3.04353 | 99.06203 | 6090 ft | 259 kts | 316° |
| 2026-04-26 13:07 | 3.05624 | 99.04939 | 5840 ft | 258 kts | 316° |
| 2026-04-26 13:07 | 3.06898 | 99.03671 | 5589 ft | 257 kts | 316° |
| 2026-04-26 13:08 | 3.08166 | 99.02410 | 5337 ft | 256 kts | 316° |
| 2026-04-26 13:08 | 3.09430 | 99.01152 | 5088 ft | 256 kts | 316° |
| 2026-04-26 13:08 | 3.10690 | 98.99898 | 4836 ft | 255 kts | 316° |
| 2026-04-26 13:08 | 3.11946 | 98.98648 | 4586 ft | 254 kts | 316° |
| 2026-04-26 13:09 | 3.13201 | 98.97399 | 4335 ft | 254 kts | 316° |
| 2026-04-26 13:09 | 3.14455 | 98.96150 | 4107 ft | 253 kts | 315° |
| 2026-04-26 13:09 | 3.15688 | 98.94923 | 4024 ft | 249 kts | 315° |
| 2026-04-26 13:09 | 3.16921 | 98.93696 | 4008 ft | 250 kts | 315° |
| 2026-04-26 13:10 | 3.18160 | 98.92462 | 4002 ft | 252 kts | 315° |
| 2026-04-26 13:10 | 3.19391 | 98.91237 | 4001 ft | 253 kts | 315° |
| 2026-04-26 13:10 | 3.20639 | 98.89993 | 4001 ft | 253 kts | 315° |
| 2026-04-26 13:10 | 3.21880 | 98.88757 | 4000 ft | 252 kts | 315° |
| 2026-04-26 13:11 | 3.23126 | 98.87517 | 4000 ft | 252 kts | 315° |
| 2026-04-26 13:11 | 3.24351 | 98.86297 | 4001 ft | 253 kts | 315° |
| 2026-04-26 13:11 | 3.25599 | 98.85054 | 4000 ft | 253 kts | 315° |
| 2026-04-26 13:11 | 3.26848 | 98.83811 | 4000 ft | 253 kts | 315° |
| 2026-04-26 13:12 | 3.28092 | 98.82572 | 4001 ft | 253 kts | 315° |
| 2026-04-26 13:12 | 3.29340 | 98.81329 | 3999 ft | 253 kts | 315° |
| 2026-04-26 13:12 | 3.30588 | 98.80087 | 3998 ft | 253 kts | 315° |
| 2026-04-26 13:12 | 3.31848 | 98.78861 | 3784 ft | 259 kts | 316° |
| 2026-04-26 13:13 | 3.33173 | 98.77599 | 3528 ft | 257 kts | 316° |
| 2026-04-26 13:13 | 3.34460 | 98.76372 | 3277 ft | 254 kts | 316° |
| 2026-04-26 13:13 | 3.35725 | 98.75165 | 3077 ft | 248 kts | 316° |
| 2026-04-26 13:13 | 3.36958 | 98.73988 | 3016 ft | 243 kts | 316° |
| 2026-04-26 13:14 | 3.38186 | 98.72817 | 3006 ft | 246 kts | 316° |
| 2026-04-26 13:14 | 3.39425 | 98.71634 | 3002 ft | 247 kts | 316° |
| 2026-04-26 13:14 | 3.40676 | 98.70440 | 3000 ft | 248 kts | 316° |
| 2026-04-26 13:14 | 3.41899 | 98.69223 | 2994 ft | 248 kts | 307° |
| 2026-04-26 13:15 | 3.42592 | 98.67670 | 2996 ft | 246 kts | 278° |
| 2026-04-26 13:15 | 3.42439 | 98.65983 | 2999 ft | 246 kts | 249° |
| 2026-04-26 13:15 | 3.41488 | 98.64581 | 3004 ft | 245 kts | 223° |
| 2026-04-26 13:15 | 3.40271 | 98.63380 | 2996 ft | 248 kts | 234° |
| 2026-04-26 13:16 | 3.39640 | 98.61766 | 3002 ft | 256 kts | 263° |
| 2026-04-26 13:16 | 3.39842 | 98.60010 | 3001 ft | 263 kts | 290° |
| 2026-04-26 13:16 | 3.40840 | 98.58517 | 2996 ft | 255 kts | 319° |
| 2026-04-26 13:16 | 3.42343 | 98.57717 | 2991 ft | 239 kts | 348° |
| 2026-04-26 13:17 | 3.45138 | 98.58599 | 2983 ft | 205 kts | 54° |
| 2026-04-26 13:17 | 3.45770 | 98.59846 | 3001 ft | 199 kts | 69° |
| 2026-04-26 13:18 | 3.46750 | 98.62400 | 2881 ft | 192 kts | 70° |
| 2026-04-26 13:18 | 3.47224 | 98.63644 | 2603 ft | 192 kts | 69° |
| 2026-04-26 13:18 | 3.48175 | 98.66130 | 2093 ft | 190 kts | 70° |
| 2026-04-26 13:19 | 3.48653 | 98.67356 | 1837 ft | 188 kts | 70° |
| 2026-04-26 13:19 | 3.49124 | 98.68556 | 1631 ft | 184 kts | 69° |
| 2026-04-26 13:19 | 3.49587 | 98.69743 | 1382 ft | 182 kts | 69° |
| 2026-04-26 13:19 | 3.50041 | 98.70924 | 1138 ft | 180 kts | 69° |
| 2026-04-26 13:20 | 3.50321 | 98.72113 | 1019 ft | 172 kts | 80° |
| 2026-04-26 13:20 | 3.50843 | 98.73151 | 1055 ft | 170 kts | 51° |
| 2026-04-26 13:20 | 3.51616 | 98.74086 | 1024 ft | 178 kts | 54° |
| 2026-04-26 13:20 | 3.52350 | 98.75078 | 1024 ft | 173 kts | 54° |
| 2026-04-26 13:21 | 3.53018 | 98.75986 | 997 ft | 165 kts | 54° |
| 2026-04-26 13:21 | 3.53469 | 98.76598 | 990 ft | 161 kts | 54° |
| 2026-04-26 13:21 | 3.54354 | 98.77799 | 996 ft | 159 kts | 54° |
| 2026-04-26 13:21 | 3.55045 | 98.78645 | 996 ft | 158 kts | 46° |
| 2026-04-26 13:22 | 3.55867 | 98.79338 | 989 ft | 151 kts | 40° |
| 2026-04-26 13:22 | 3.56674 | 98.79959 | 1003 ft | 145 kts | 39° |
| 2026-04-26 13:22 | 3.57410 | 98.80642 | 980 ft | 145 kts | 50° |
| 2026-04-26 13:22 | 3.58091 | 98.81390 | 894 ft | 144 kts | 47° |
| 2026-04-26 13:23 | 3.58797 | 98.82087 | 797 ft | 142 kts | 46° |
| 2026-04-26 13:23 | 3.59509 | 98.82788 | 555 ft | 148 kts | 46° |
| 2026-04-26 13:23 | 3.60233 | 98.83516 | 361 ft | 134 kts | 48° |
| 2026-04-26 13:23 | 3.60881 | 98.84182 | 250 ft | 137 kts | 46° |
| 2026-04-26 13:24 | 3.61563 | 98.84857 | 86 ft | 137 kts | 47° |
| 2026-04-26 13:24 | 3.62193 | 98.85504 | 43 ft | 117 kts | 47° |
| 2026-04-26 13:24 | 3.62626 | 98.85947 | 40 ft | 53 kts | 45° |
| 2026-04-26 13:24 | 3.62839 | 98.86176 | 40 ft | 38 kts | 46° |
| 2026-04-26 13:25 | 3.62900 | 98.86339 | 40 ft | 21 kts | 115° |
| 2026-04-26 13:25 | 3.62839 | 98.86469 | 40 ft | 21 kts | 78° |
| 2026-04-26 13:25 | 3.62927 | 98.86579 | 40 ft | 20 kts | 41° |
| 2026-04-26 13:25 | 3.63031 | 98.86671 | 40 ft | 20 kts | 42° |
| 2026-04-26 13:26 | 3.63103 | 98.86754 | 40 ft | 11 kts | 72° |
| 2026-04-26 13:26 | 3.63064 | 98.86823 | 40 ft | 13 kts | 139° |
| 2026-04-26 13:26 | 3.62992 | 98.86886 | 40 ft | 14 kts | 139° |
| 2026-04-26 13:26 | 3.62942 | 98.86920 | 40 ft | 4 kts | 184° |
| 2026-04-26 13:27 | 3.62905 | 98.86906 | 40 ft | 7 kts | 207° |
| 2026-04-26 13:27 | 3.62857 | 98.86868 | 40 ft | 10 kts | 223° |
| 2026-04-26 13:27 | 3.62801 | 98.86813 | 40 ft | 12 kts | 225° |
| 2026-04-26 13:27 | 3.62741 | 98.86753 | 40 ft | 9 kts | 225° |
| 2026-04-26 13:28 | 3.62688 | 98.86757 | 40 ft | 10 kts | 135° |
| 2026-04-26 13:28 | 3.62637 | 98.86809 | 40 ft | 2 kts | 135° |
| 2026-04-26 13:28 | 3.62621 | 98.86825 | 40 ft | 5 kts | 135° |
| 2026-04-26 13:28 | 3.62588 | 98.86858 | 40 ft | 8 kts | 135° |
| 2026-04-26 13:29 | 3.62541 | 98.86906 | 40 ft | 11 kts | 135° |
| 2026-04-26 13:29 | 3.62503 | 98.86944 | 40 ft | 12 kts | 135° |
| 2026-04-26 13:29 | 3.62425 | 98.87025 | 40 ft | 10 kts | 123° |
| 2026-04-26 13:29 | 3.62443 | 98.87090 | 40 ft | 10 kts | 45° |
| 2026-04-26 13:30 | 3.62498 | 98.87144 | 40 ft | 12 kts | 44° |
| 2026-04-26 13:30 | 3.62563 | 98.87206 | 40 ft | 14 kts | 43° |
| 2026-04-26 13:30 | 3.62632 | 98.87247 | 40 ft | 9 kts | 336° |
| 2026-04-26 13:30 | 3.62686 | 98.87197 | 40 ft | 12 kts | 315° |
| 2026-04-26 13:31 | 3.62749 | 98.87135 | 40 ft | 13 kts | 315° |
| 2026-04-26 13:31 | 3.62819 | 98.87066 | 40 ft | 15 kts | 315° |
| 2026-04-26 13:31 | 3.62896 | 98.86991 | 40 ft | 16 kts | 316° |
| 2026-04-26 13:31 | 3.62977 | 98.86913 | 40 ft | 17 kts | 316° |
| 2026-04-26 13:32 | 3.63063 | 98.86831 | 40 ft | 17 kts | 316° |
| 2026-04-26 13:32 | 3.63123 | 98.86769 | 40 ft | 6 kts | 284° |
| 2026-04-26 13:32 | 3.63098 | 98.86726 | 40 ft | 9 kts | 232° |
| 2026-04-26 13:32 | 3.63088 | 98.86674 | 40 ft | 9 kts | 289° |
| 2026-04-26 13:33 | 3.63094 | 98.86616 | 40 ft | 9 kts | 252° |
| 2026-04-26 13:33 | 3.63050 | 98.86559 | 40 ft | 12 kts | 218° |
| 2026-04-26 13:33 | 3.62995 | 98.86492 | 40 ft | 13 kts | 226° |
| 2026-04-26 13:33 | 3.62925 | 98.86422 | 40 ft | 15 kts | 224° |
| 2026-04-26 13:34 | 3.62848 | 98.86347 | 40 ft | 16 kts | 224° |
| 2026-04-26 13:34 | 3.62767 | 98.86268 | 40 ft | 17 kts | 224° |
| 2026-04-26 13:34 | 3.62681 | 98.86184 | 40 ft | 17 kts | 224° |
| 2026-04-26 13:34 | 3.62623 | 98.86128 | 40 ft | 18 kts | 224° |
| 2026-04-26 13:35 | 3.62503 | 98.86013 | 40 ft | 18 kts | 224° |
| 2026-04-26 13:35 | 3.62409 | 98.85923 | 40 ft | 19 kts | 223° |
| 2026-04-26 13:35 | 3.62316 | 98.85835 | 40 ft | 19 kts | 223° |
| 2026-04-26 13:35 | 3.62221 | 98.85745 | 40 ft | 19 kts | 226° |
| 2026-04-26 13:36 | 3.62129 | 98.85649 | 40 ft | 18 kts | 226° |
| 2026-04-26 13:36 | 3.62039 | 98.85556 | 40 ft | 18 kts | 225° |
| 2026-04-26 13:36 | 3.61948 | 98.85465 | 40 ft | 19 kts | 225° |
| 2026-04-26 13:36 | 3.61856 | 98.85374 | 40 ft | 19 kts | 224° |
| 2026-04-26 13:37 | 3.61761 | 98.85284 | 40 ft | 19 kts | 223° |
| 2026-04-26 13:37 | 3.61674 | 98.85198 | 40 ft | 16 kts | 224° |
| 2026-04-26 13:37 | 3.61588 | 98.85185 | 40 ft | 14 kts | 142° |
| 2026-04-26 13:37 | 3.61539 | 98.85237 | 40 ft | 9 kts | 113° |
| 2026-04-26 13:38 | 3.61551 | 98.85287 | 40 ft | 4 kts | 51° |
| 2026-04-26 13:38 | 3.61575 | 98.85321 | 40 ft | 3 kts | 84° |
| 2026-04-26 13:38 | 3.61574 | 98.85331 | 40 ft | 3 kts | 100° |
| 2026-04-26 13:38 | 3.61564 | 98.85353 | 40 ft | 4 kts | 122° |
| 2026-04-26 13:39 | 3.61549 | 98.85371 | 40 ft | 4 kts | 131° |
| 2026-04-26 13:39 | 3.61542 | 98.85378 | 40 ft | 1 kts | 133° |
| 2026-04-26 13:39 | 3.61538 | 98.85383 | 40 ft | 0 kts | 133° |